Terminal Aerodrome Forecast
Issued by NWS

Home | Current Version | Previous Version | Text Only | Print | Product List | Glossary On
Versions: 1 2 3 4 5 6 7 8 9 10 11 12 13 14 15 16 17 18 19 20 21 22 23 24 25 26 27 28 29 30 31 32 33 34
867
FTUS46 KPQR 250521
TAFONP
TAF
KONP 250521Z 2506/2606 20008KT P6SM SKC
     FM251500 19006KT 5SM BR BKN003
     FM251800 21011KT 5SM BR SKC
     FM260000 21014G20KT P6SM SKC
     FM260200 20010KT 4SM BR OVC015=

USA.gov is the U.S. government's official web portal to all federal, state and local government web resources and services.